Time;durP1;ratioP1;P1;durP2;ratioP2;P2;SDS_P1;SDS_P2;PMS_P1;PMS_P2;Temp;Humidity;BMP_temperature;BMP_pressure;BME280_temperature;BME280_humidity;BME280_pressure;Samples;Min_cycle;Max_cycle;Signal;HPM_P1;HPM_P2
2022/07/10 00:02:22;;;;;;;1.20;1.07;;;;;;;;;;5065774;28;20256;-72
2022/07/10 00:05:10;;;;;;;1.30;0.87;;;;;;;;;;5064869;28;20688;-72
2022/07/10 00:07:58;;;;;;;1.67;1.20;;;;;;;;;;5058917;28;20222;-72
2022/07/10 00:10:46;;;;;;;1.43;1.23;;;;;;;;;;5063383;28;20242;-72
2022/07/10 00:13:33;;;;;;;1.73;1.20;;;;;;;;;;5063721;28;20207;-72
2022/07/10 00:16:19;;;;;;;1.37;1.00;;;;;;;;;;5061993;28;20214;-72
2022/07/10 00:19:08;;;;;;;1.43;1.00;;;;;;;;;;5054945;28;20246;-72
2022/07/10 00:21:55;;;;;;;0.97;0.90;;;;;;;;;;5062904;28;20681;-73
2022/07/10 00:24:42;;;;;;;2.83;1.17;;;;;;;;;;5062438;28;20242;-72
2022/07/10 00:27:29;;;;;;;1.50;1.13;;;;;;;;;;5062688;28;20662;-72
2022/07/10 00:30:16;;;;;;;0.93;0.93;;;;;;;;;;5058328;28;20292;-72
2022/07/10 00:33:02;;;;;;;1.00;0.90;;;;;;;;;;5064439;28;20214;-72
2022/07/10 00:35:51;;;;;;;1.17;1.03;;;;;;;;;;5059017;28;20233;-72
2022/07/10 00:38:38;;;;;;;1.47;1.23;;;;;;;;;;5060960;28;20246;-73
2022/07/10 00:41:25;;;;;;;1.97;1.23;;;;;;;;;;5064000;28;20622;-73
2022/07/10 00:44:12;;;;;;;1.73;1.10;;;;;;;;;;5057768;28;20676;-72
2022/07/10 00:47:00;;;;;;;0.93;0.93;;;;;;;;;;5053010;28;20554;-72
2022/07/10 00:49:47;;;;;;;1.17;1.07;;;;;;;;;;5064200;28;20700;-72
2022/07/10 00:52:38;;;;;;;1.10;1.00;;;;;;;;;;5062657;28;20676;-72
2022/07/10 00:55:25;;;;;;;1.20;1.03;;;;;;;;;;5059204;28;20261;-72
2022/07/10 00:58:13;;;;;;;1.87;1.10;;;;;;;;;;5063534;28;20219;-72
2022/07/10 01:01:02;;;;;;;1.60;1.20;;;;;;;;;;5055990;28;20204;-72
2022/07/10 01:03:49;;;;;;;0.83;0.67;;;;;;;;;;5065967;28;20233;-72
2022/07/10 01:06:37;;;;;;;1.23;0.97;;;;;;;;;;5058336;28;20210;-72
2022/07/10 01:09:26;;;;;;;1.00;1.00;;;;;;;;;;5061442;28;20631;-72
2022/07/10 01:12:14;;;;;;;1.07;0.80;;;;;;;;;;5064101;28;20291;-72
2022/07/10 01:15:01;;;;;;;0.97;0.87;;;;;;;;;;5059652;28;20212;-73
2022/07/10 01:17:49;;;;;;;1.03;0.90;;;;;;;;;;5052426;28;20385;-73
2022/07/10 01:20:36;;;;;;;2.33;1.03;;;;;;;;;;5058968;28;20731;-72
2022/07/10 01:23:27;;;;;;;2.33;1.03;;;;;;;;;;5058823;28;20209;-72
2022/07/10 01:26:14;;;;;;;0.90;0.90;;;;;;;;;;5059789;28;20201;-72
2022/07/10 01:29:04;;;;;;;1.00;0.90;;;;;;;;;;5058936;28;20710;-72
2022/07/10 01:31:51;;;;;;;0.83;0.83;;;;;;;;;;5057610;28;20239;-72
2022/07/10 01:34:38;;;;;;;0.70;0.70;;;;;;;;;;5057332;28;20278;-72
2022/07/10 01:37:25;;;;;;;1.93;1.17;;;;;;;;;;5061022;28;20241;-72
2022/07/10 01:40:13;;;;;;;1.87;0.97;;;;;;;;;;5056359;28;20296;-72
2022/07/10 01:43:00;;;;;;;1.83;1.00;;;;;;;;;;5057945;28;20619;-72
2022/07/10 01:45:48;;;;;;;1.20;1.10;;;;;;;;;;5055896;28;20261;-72
2022/07/10 01:48:35;;;;;;;1.60;1.07;;;;;;;;;;5060634;28;20215;-72
2022/07/10 01:51:23;;;;;;;0.87;0.87;;;;;;;;;;5053855;28;20401;-72
2022/07/10 01:54:10;;;;;;;0.97;0.90;;;;;;;;;;5054687;28;20209;-72
2022/07/10 01:56:58;;;;;;;1.07;0.90;;;;;;;;;;5060331;28;20211;-72
2022/07/10 01:59:45;;;;;;;1.17;1.07;;;;;;;;;;5062263;28;20209;-72
2022/07/10 02:02:32;;;;;;;1.47;1.17;;;;;;;;;;5061446;28;20235;-72
2022/07/10 02:05:18;;;;;;;0.90;0.70;;;;;;;;;;5062658;28;20218;-72
2022/07/10 02:08:06;;;;;;;0.90;0.90;;;;;;;;;;5057290;28;20405;-72
2022/07/10 02:10:53;;;;;;;1.20;1.10;;;;;;;;;;5059388;28;20643;-72
2022/07/10 02:13:42;;;;;;;0.93;0.93;;;;;;;;;;5055131;28;20213;-72
2022/07/10 02:16:29;;;;;;;1.23;1.10;;;;;;;;;;5056417;28;20214;-72
2022/07/10 02:19:16;;;;;;;1.27;1.00;;;;;;;;;;5054993;28;20670;-72
2022/07/10 02:22:03;;;;;;;0.80;0.80;;;;;;;;;;5053840;28;20215;-72
2022/07/10 02:24:50;;;;;;;0.93;0.70;;;;;;;;;;5059952;28;20233;-72
2022/07/10 02:27:37;;;;;;;0.80;0.80;;;;;;;;;;5057897;28;20292;-72
2022/07/10 02:30:26;;;;;;;1.30;1.20;;;;;;;;;;5062203;28;20229;-72
2022/07/10 02:33:13;;;;;;;1.03;0.80;;;;;;;;;;5063915;28;20219;-72
2022/07/10 02:36:00;;;;;;;1.47;1.10;;;;;;;;;;5059644;28;20214;-72
2022/07/10 02:38:47;;;;;;;0.77;0.63;;;;;;;;;;5070050;28;20343;-72
2022/07/10 02:41:35;;;;;;;1.33;1.23;;;;;;;;;;5058290;28;20812;-72
2022/07/10 02:44:22;;;;;;;1.37;1.27;;;;;;;;;;5057023;28;20267;-72
2022/07/10 02:47:10;;;;;;;1.20;1.10;;;;;;;;;;5062505;28;20214;-72
2022/07/10 02:49:57;;;;;;;1.10;1.00;;;;;;;;;;5058623;28;20762;-72
2022/07/10 02:52:45;;;;;;;1.00;0.67;;;;;;;;;;5060023;28;20212;-72
2022/07/10 02:55:32;;;;;;;0.83;0.83;;;;;;;;;;5059817;28;20218;-73
2022/07/10 02:58:19;;;;;;;0.87;0.87;;;;;;;;;;5061501;28;20580;-72
2022/07/10 03:01:06;;;;;;;1.90;0.90;;;;;;;;;;5056012;28;20203;-72
2022/07/10 03:03:55;;;;;;;0.70;0.70;;;;;;;;;;5061973;28;20203;-72
2022/07/10 03:06:42;;;;;;;1.00;0.80;;;;;;;;;;5067569;28;20221;-72
2022/07/10 03:09:29;;;;;;;1.87;1.13;;;;;;;;;;5062682;28;20241;-72
2022/07/10 03:12:16;;;;;;;1.93;1.17;;;;;;;;;;5062612;28;20254;-72
2022/07/10 03:15:03;;;;;;;1.07;0.97;;;;;;;;;;5060707;28;20245;-73
2022/07/10 03:17:50;;;;;;;1.03;1.00;;;;;;;;;;5063639;28;20298;-72
2022/07/10 03:20:39;;;;;;;1.07;0.83;;;;;;;;;;5062151;28;20269;-72
2022/07/10 03:23:26;;;;;;;1.27;0.90;;;;;;;;;;5067154;28;20554;-72
2022/07/10 03:26:14;;;;;;;1.80;0.87;;;;;;;;;;5060279;28;20232;-72
2022/07/10 03:29:01;;;;;;;1.20;1.10;;;;;;;;;;5062535;28;20579;-72
2022/07/10 03:31:49;;;;;;;1.10;0.90;;;;;;;;;;5060863;28;20211;-72
2022/07/10 03:34:36;;;;;;;1.03;0.93;;;;;;;;;;5059411;28;20697;-72
2022/07/10 03:37:25;;;;;;;0.80;0.80;;;;;;;;;;5061523;28;20219;-72
2022/07/10 03:40:13;;;;;;;1.33;0.90;;;;;;;;;;5059426;28;20201;-73
2022/07/10 03:43:00;;;;;;;1.00;0.87;;;;;;;;;;5061133;28;20205;-72
2022/07/10 03:45:47;;;;;;;0.80;0.80;;;;;;;;;;5060393;28;20212;-73
2022/07/10 03:48:34;;;;;;;1.17;1.07;;;;;;;;;;5060994;28;20222;-72
2022/07/10 03:51:21;;;;;;;0.90;0.90;;;;;;;;;;5061578;28;20593;-72
2022/07/10 03:54:09;;;;;;;1.10;1.07;;;;;;;;;;5060067;28;20286;-72
2022/07/10 04:00:00;;;;;;;0.90;0.83;;;;;;;;;;5057244;28;20597;-72
2022/07/10 04:02:47;;;;;;;1.33;1.23;;;;;;;;;;5061646;28;20277;-73
2022/07/10 04:05:35;;;;;;;1.40;1.30;;;;;;;;;;5059630;28;20340;-72
2022/07/10 04:08:22;;;;;;;1.20;1.10;;;;;;;;;;5059866;28;20209;-70
2022/07/10 04:11:11;;;;;;;1.03;0.93;;;;;;;;;;5063697;28;20236;-70
2022/07/10 04:13:58;;;;;;;0.97;0.97;;;;;;;;;;5061029;28;20576;-70
2022/07/10 04:16:46;;;;;;;1.30;1.10;;;;;;;;;;5059434;28;20209;-70
2022/07/10 04:19:33;;;;;;;0.70;0.70;;;;;;;;;;5062726;28;20297;-70
2022/07/10 04:22:20;;;;;;;1.30;1.20;;;;;;;;;;5059781;28;20213;-69
2022/07/10 04:25:08;;;;;;;1.37;0.90;;;;;;;;;;5059856;28;20218;-69
2022/07/10 04:27:57;;;;;;;1.03;1.00;;;;;;;;;;5064268;28;20210;-70
2022/07/10 04:30:44;;;;;;;0.90;0.90;;;;;;;;;;5061223;28;20236;-70
2022/07/10 04:33:31;;;;;;;1.13;1.03;;;;;;;;;;5061516;28;20213;-70
2022/07/10 04:36:18;;;;;;;2.13;0.90;;;;;;;;;;5061699;28;20236;-69
2022/07/10 04:39:05;;;;;;;0.90;0.90;;;;;;;;;;5062087;28;20239;-70
2022/07/10 04:41:52;;;;;;;1.17;1.07;;;;;;;;;;5061657;28;20213;-69
2022/07/10 04:44:40;;;;;;;0.93;0.90;;;;;;;;;;5059131;28;20255;-69
2022/07/10 04:47:27;;;;;;;0.87;0.87;;;;;;;;;;5056962;28;20207;-69
2022/07/10 04:50:14;;;;;;;1.20;1.10;;;;;;;;;;5067801;28;20244;-69
2022/07/10 04:53:01;;;;;;;1.07;0.97;;;;;;;;;;5061520;28;20210;-69
2022/07/10 04:55:48;;;;;;;0.90;0.90;;;;;;;;;;5063693;28;20205;-69
2022/07/10 04:58:35;;;;;;;1.23;1.13;;;;;;;;;;5057701;28;20220;-69
2022/07/10 05:01:23;;;;;;;1.50;0.90;;;;;;;;;;5061174;28;20217;-70
2022/07/10 05:04:10;;;;;;;1.30;1.10;;;;;;;;;;5061361;28;20336;-70
2022/07/10 05:06:57;;;;;;;1.23;1.00;;;;;;;;;;5056926;28;20659;-69
2022/07/10 05:09:44;;;;;;;0.80;0.80;;;;;;;;;;5060939;28;20215;-70
2022/07/10 05:12:31;;;;;;;1.10;1.00;;;;;;;;;;5059325;28;20242;-70
2022/07/10 05:15:18;;;;;;;0.80;0.80;;;;;;;;;;5059994;28;20262;-70
2022/07/10 05:18:06;;;;;;;1.00;0.90;;;;;;;;;;5062901;28;20213;-70
2022/07/10 05:20:53;;;;;;;1.20;1.10;;;;;;;;;;5055569;28;20211;-69
2022/07/10 05:23:41;;;;;;;2.43;1.40;;;;;;;;;;5056160;28;20200;-69
2022/07/10 05:26:28;;;;;;;1.53;1.00;;;;;;;;;;5063888;28;20250;-70
2022/07/10 05:29:14;;;;;;;1.00;0.90;;;;;;;;;;5062286;28;20213;-69
2022/07/10 05:32:01;;;;;;;1.30;1.10;;;;;;;;;;5060447;28;20258;-70
2022/07/10 05:34:50;;;;;;;0.85;0.85;;;;;;;;;;5057936;28;20768;-70
2022/07/10 05:37:37;;;;;;;1.27;1.17;;;;;;;;;;5060577;28;20295;-70
2022/07/10 05:40:24;;;;;;;1.17;1.17;;;;;;;;;;5053835;28;20698;-71
2022/07/10 05:43:11;;;;;;;0.90;0.90;;;;;;;;;;5054993;28;20229;-69
2022/07/10 05:45:58;;;;;;;0.70;0.70;;;;;;;;;;5056857;28;20692;-69
2022/07/10 05:48:45;;;;;;;0.80;0.80;;;;;;;;;;5055903;28;20214;-69
2022/07/10 05:51:33;;;;;;;1.30;0.98;;;;;;;;;;5059215;28;20259;-71
2022/07/10 05:54:20;;;;;;;0.70;0.70;;;;;;;;;;5058754;28;20279;-70
2022/07/10 05:57:07;;;;;;;0.75;0.75;;;;;;;;;;5059525;28;20210;-70
2022/07/10 05:59:55;;;;;;;0.98;0.93;;;;;;;;;;5056646;28;20217;-70
2022/07/10 06:02:42;;;;;;;0.82;0.82;;;;;;;;;;5060010;28;20226;-70
2022/07/10 06:05:29;;;;;;;0.77;0.77;;;;;;;;;;5059776;28;20706;-69
2022/07/10 06:08:17;;;;;;;0.82;0.82;;;;;;;;;;5056121;28;20205;-70
2022/07/10 06:11:04;;;;;;;0.88;0.88;;;;;;;;;;5052513;28;20691;-71
2022/07/10 06:13:51;;;;;;;0.77;0.77;;;;;;;;;;5056343;28;20207;-69
2022/07/10 06:16:38;;;;;;;0.73;0.70;;;;;;;;;;5056266;28;20206;-69
2022/07/10 06:19:25;;;;;;;0.70;0.70;;;;;;;;;;5057827;28;20249;-69
2022/07/10 06:22:31;;;;;;;0.88;0.88;;;;;;;;;;5052816;28;20676;-70
2022/07/10 06:25:19;;;;;;;0.70;0.70;;;;;;;;;;5058797;28;20296;-70
2022/07/10 06:28:06;;;;;;;0.60;0.60;;;;;;;;;;5059789;28;20249;-70
2022/07/10 06:30:53;;;;;;;0.52;0.52;;;;;;;;;;5055390;28;20238;-70
2022/07/10 06:33:40;;;;;;;0.73;0.73;;;;;;;;;;5057085;28;20199;-71
2022/07/10 06:36:27;;;;;;;0.65;0.50;;;;;;;;;;5058240;28;20207;-71
2022/07/10 06:39:14;;;;;;;0.60;0.60;;;;;;;;;;5059316;28;20268;-70
2022/07/10 06:42:03;;;;;;;0.52;0.52;;;;;;;;;;5059896;28;20267;-71
2022/07/10 06:44:50;;;;;;;0.70;0.70;;;;;;;;;;5058856;28;20200;-70
2022/07/10 06:50:42;;;;;;;0.50;0.50;;;;;;;;;;5058299;28;20232;-71
2022/07/10 06:53:29;;;;;;;0.65;0.65;;;;;;;;;;5051629;28;20215;-72
2022/07/10 06:56:16;;;;;;;0.50;0.50;;;;;;;;;;5058417;28;20219;-71
2022/07/10 06:59:05;;;;;;;0.40;0.40;;;;;;;;;;5061437;28;20200;-70
2022/07/10 07:01:52;;;;;;;0.70;0.70;;;;;;;;;;5060612;28;20228;-71
2022/07/10 07:04:39;;;;;;;0.45;0.45;;;;;;;;;;5054499;28;20311;-71
2022/07/10 07:07:26;;;;;;;0.40;0.40;;;;;;;;;;5060906;28;20663;-71
2022/07/10 07:10:13;;;;;;;0.40;0.40;;;;;;;;;;5051922;28;20207;-72
2022/07/10 07:13:02;;;;;;;0.70;0.70;;;;;;;;;;5059201;28;20204;-71
2022/07/10 07:15:58;;;;;;;0.52;0.52;;;;;;;;;;5059379;28;20571;-71
2022/07/10 07:18:49;;;;;;;0.40;0.40;;;;;;;;;;5059940;28;20215;-71
2022/07/10 07:24:40;;;;;;;0.57;0.45;;;;;;;;;;5065136;28;20199;-71
2022/07/10 07:27:27;;;;;;;0.50;0.50;;;;;;;;;;5059544;28;20203;-72
2022/07/10 07:30:16;;;;;;;0.82;0.40;;;;;;;;;;5061638;28;20207;-72
2022/07/10 07:33:04;;;;;;;0.43;0.43;;;;;;;;;;5062957;28;20694;-73
2022/07/10 07:35:51;;;;;;;0.32;0.32;;;;;;;;;;5060459;28;20211;-72
2022/07/10 07:38:38;;;;;;;0.30;0.30;;;;;;;;;;5060519;28;20210;-72
2022/07/10 07:41:25;;;;;;;0.35;0.20;;;;;;;;;;5058132;28;20207;-71
2022/07/10 07:44:13;;;;;;;0.45;0.45;;;;;;;;;;5062726;28;20199;-72
2022/07/10 07:47:00;;;;;;;0.10;0.10;;;;;;;;;;5058740;28;20226;-72
2022/07/10 07:49:48;;;;;;;0.32;0.32;;;;;;;;;;5058556;28;20340;-72
2022/07/10 07:52:36;;;;;;;0.20;0.17;;;;;;;;;;5058882;28;20310;-72
2022/07/10 07:55:24;;;;;;;0.28;0.28;;;;;;;;;;5061616;28;20260;-72
2022/07/10 07:58:11;;;;;;;0.40;0.40;;;;;;;;;;5057297;28;20226;-72
2022/07/10 08:00:59;;;;;;;0.75;0.10;;;;;;;;;;5061884;28;20195;-71
2022/07/10 08:03:46;;;;;;;0.20;0.20;;;;;;;;;;5067543;28;20277;-72
2022/07/10 08:06:34;;;;;;;0.20;0.20;;;;;;;;;;5056607;28;20238;-72
2022/07/10 08:09:21;;;;;;;0.20;0.20;;;;;;;;;;5063881;28;20752;-71
2022/07/10 08:12:09;;;;;;;0.38;0.38;;;;;;;;;;5058267;28;20311;-72
2022/07/10 08:14:56;;;;;;;0.10;0.10;;;;;;;;;;5063696;28;20207;-71
2022/07/10 08:17:43;;;;;;;0.25;0.25;;;;;;;;;;5062605;28;20210;-71
2022/07/10 08:20:30;;;;;;;0.10;0.10;;;;;;;;;;5062866;28;20203;-70
2022/07/10 08:23:18;;;;;;;0.30;0.30;;;;;;;;;;5059666;28;20195;-71
2022/07/10 08:26:05;;;;;;;0.20;0.20;;;;;;;;;;5061838;28;20227;-73
2022/07/10 08:28:52;;;;;;;0.25;0.25;;;;;;;;;;5060323;28;20291;-71
2022/07/10 08:31:40;;;;;;;0.40;0.20;;;;;;;;;;5056159;28;20214;-72
2022/07/10 08:34:28;;;;;;;0.35;0.30;;;;;;;;;;5059845;28;20329;-71
2022/07/10 08:37:19;;;;;;;0.15;0.15;;;;;;;;;;5058072;28;20204;-70
2022/07/10 08:40:10;;;;;;;0.20;0.20;;;;;;;;;;5062891;28;20242;-70
2022/07/10 08:42:57;;;;;;;0.20;0.20;;;;;;;;;;5056711;28;20206;-70
2022/07/10 08:45:44;;;;;;;0.10;0.10;;;;;;;;;;5059321;28;20748;-71
2022/07/10 08:48:33;;;;;;;0.30;0.30;;;;;;;;;;5059450;28;20219;-71
2022/07/10 08:51:26;;;;;;;0.15;0.15;;;;;;;;;;5065701;28;20292;-71
2022/07/10 08:54:15;;;;;;;0.22;0.22;;;;;;;;;;5061759;28;20199;-71
2022/07/10 08:57:04;;;;;;;0.20;0.20;;;;;;;;;;5057299;28;20283;-70
2022/07/10 08:59:51;;;;;;;0.20;0.20;;;;;;;;;;5056364;28;20230;-70
2022/07/10 09:02:38;;;;;;;0.20;0.20;;;;;;;;;;5060032;28;20347;-71
2022/07/10 09:05:26;;;;;;;0.10;0.10;;;;;;;;;;5058522;28;20208;-71
2022/07/10 09:08:23;;;;;;;0.20;0.20;;;;;;;;;;5058631;28;20341;-70
2022/07/10 09:11:17;;;;;;;0.20;0.20;;;;;;;;;;5058949;28;20341;-70
2022/07/10 09:14:07;;;;;;;0.20;0.20;;;;;;;;;;5057188;28;20203;-69
2022/07/10 09:16:55;;;;;;;0.22;0.22;;;;;;;;;;5059939;28;20403;-70
2022/07/10 09:19:42;;;;;;;0.20;0.20;;;;;;;;;;5060269;28;20210;-70
2022/07/10 09:22:36;;;;;;;0.30;0.30;;;;;;;;;;5059763;28;20211;-70
2022/07/10 09:25:25;;;;;;;0.20;0.20;;;;;;;;;;5055755;28;20660;-69
2022/07/10 09:28:13;;;;;;;0.10;0.10;;;;;;;;;;5059431;28;20211;-70
2022/07/10 09:31:01;;;;;;;0.20;0.20;;;;;;;;;;5058525;28;20219;-70
2022/07/10 09:33:48;;;;;;;0.13;0.13;;;;;;;;;;5057481;28;20212;-70
2022/07/10 09:36:36;;;;;;;0.20;0.20;;;;;;;;;;5065563;28;20208;-70
2022/07/10 09:39:23;;;;;;;0.10;0.10;;;;;;;;;;5059086;28;20211;-69
2022/07/10 09:42:25;;;;;;;0.30;0.30;;;;;;;;;;5058008;28;20200;-71
2022/07/10 09:45:17;;;;;;;0.20;0.20;;;;;;;;;;5059743;28;20199;-70
2022/07/10 09:48:06;;;;;;;0.10;0.10;;;;;;;;;;5062657;28;20218;-70
2022/07/10 09:50:53;;;;;;;0.20;0.20;;;;;;;;;;5057648;28;20619;-70
2022/07/10 09:53:41;;;;;;;0.20;0.20;;;;;;;;;;5061651;28;20215;-69
2022/07/10 09:56:34;;;;;;;0.13;0.13;;;;;;;;;;5060908;28;20203;-70
2022/07/10 09:59:22;;;;;;;0.13;0.13;;;;;;;;;;5052657;28;20210;-70
2022/07/10 10:02:12;;;;;;;0.20;0.20;;;;;;;;;;5054516;28;20618;-71
2022/07/10 10:05:00;;;;;;;0.10;0.10;;;;;;;;;;5056695;28;20214;-69
2022/07/10 10:07:48;;;;;;;0.20;0.20;;;;;;;;;;5062468;28;20200;-70
2022/07/10 10:10:36;;;;;;;0.20;0.20;;;;;;;;;;5057220;28;20317;-71
2022/07/10 10:13:27;;;;;;;0.20;0.13;;;;;;;;;;5057684;28;20687;-71
2022/07/10 10:16:14;;;;;;;0.30;0.30;;;;;;;;;;5061149;28;20234;-69
2022/07/10 10:22:09;;;;;;;0.20;0.20;;;;;;;;;;5061525;28;20231;-71
2022/07/10 10:24:57;;;;;;;0.20;0.20;;;;;;;;;;5061450;28;20210;-70
2022/07/10 10:27:45;;;;;;;0.10;0.10;;;;;;;;;;5059795;28;20655;-69
2022/07/10 10:30:33;;;;;;;0.20;0.10;;;;;;;;;;5056425;28;20220;-70
2022/07/10 10:33:44;;;;;;;0.10;0.10;;;;;;;;;;5060910;28;20597;-71
2022/07/10 10:36:49;;;;;;;0.10;0.10;;;;;;;;;;5057990;28;20261;-70
2022/07/10 10:39:56;;;;;;;0.10;0.10;;;;;;;;;;5056531;28;20599;-72
2022/07/10 10:42:44;;;;;;;0.13;0.13;;;;;;;;;;5058511;28;20203;-70
2022/07/10 10:45:35;;;;;;;0.20;0.20;;;;;;;;;;5057972;28;20204;-70
2022/07/10 10:48:21;;;;;;;0.03;0.03;;;;;;;;;;5056631;28;20755;-70
2022/07/10 10:51:09;;;;;;;0.10;0.10;;;;;;;;;;5065859;28;20214;-71
2022/07/10 10:54:05;;;;;;;0.10;0.10;;;;;;;;;;5058957;28;20243;-70
2022/07/10 10:57:15;;;;;;;1.10;0.20;;;;;;;;;;5057058;28;20337;-70
2022/07/10 11:00:06;;;;;;;0.45;0.10;;;;;;;;;;5058576;28;20660;-70
2022/07/10 11:03:13;;;;;;;0.20;0.20;;;;;;;;;;5060509;28;20266;-70
2022/07/10 11:06:02;;;;;;;0.30;0.15;;;;;;;;;;5062048;28;20215;-69
2022/07/10 11:08:49;;;;;;;0.10;0.10;;;;;;;;;;5060047;28;20204;-70
2022/07/10 11:11:42;;;;;;;0.00;0.00;;;;;;;;;;5060194;28;20239;-71
2022/07/10 11:14:32;;;;;;;0.15;0.15;;;;;;;;;;5064689;28;20741;-70
2022/07/10 11:17:19;;;;;;;0.17;0.17;;;;;;;;;;5064789;28;20208;-70
2022/07/10 11:20:07;;;;;;;0.15;0.10;;;;;;;;;;5060542;28;20368;-70
2022/07/10 11:23:07;;;;;;;0.17;0.10;;;;;;;;;;5062688;28;20548;-72
2022/07/10 11:26:08;;;;;;;0.08;0.08;;;;;;;;;;5063267;28;20250;-70
2022/07/10 11:29:00;;;;;;;0.13;0.13;;;;;;;;;;5058470;28;20695;-71
2022/07/10 11:31:55;;;;;;;0.52;0.10;;;;;;;;;;5057765;28;20204;-71
2022/07/10 11:34:42;;;;;;;0.10;0.10;;;;;;;;;;5060308;28;20289;-72
2022/07/10 11:37:30;;;;;;;1.23;0.17;;;;;;;;;;5060167;28;20204;-70
2022/07/10 11:40:19;;;;;;;1.08;0.10;;;;;;;;;;5066267;28;20667;-70
2022/07/10 11:43:09;;;;;;;0.20;0.20;;;;;;;;;;5062704;28;20583;-72
2022/07/10 11:46:00;;;;;;;0.30;0.20;;;;;;;;;;5056765;28;20208;-70
2022/07/10 11:48:50;;;;;;;0.13;0.10;;;;;;;;;;5057982;28;20208;-71
2022/07/10 11:51:39;;;;;;;0.10;0.10;;;;;;;;;;5058610;28;20215;-71
2022/07/10 11:54:26;;;;;;;0.10;0.10;;;;;;;;;;5060148;28;20266;-70
2022/07/10 11:57:13;;;;;;;0.25;0.20;;;;;;;;;;5062789;28;20200;-69
2022/07/10 12:00:00;;;;;;;0.22;0.10;;;;;;;;;;5061641;28;20207;-70
2022/07/10 12:02:47;;;;;;;0.10;0.10;;;;;;;;;;5058601;28;20306;-72
2022/07/10 12:05:37;;;;;;;0.10;0.10;;;;;;;;;;5060693;28;20206;-71
2022/07/10 12:08:23;;;;;;;0.10;0.10;;;;;;;;;;5064492;28;20199;-70
2022/07/10 12:11:15;;;;;;;0.10;0.10;;;;;;;;;;5063943;28;20235;-70
2022/07/10 12:14:14;;;;;;;0.20;0.20;;;;;;;;;;5059996;28;20231;-70
2022/07/10 12:17:01;;;;;;;0.20;0.10;;;;;;;;;;5060908;28;20214;-69
2022/07/10 12:19:50;;;;;;;0.10;0.10;;;;;;;;;;5055219;28;20204;-70
2022/07/10 12:22:39;;;;;;;0.10;0.10;;;;;;;;;;5055249;28;20200;-70
2022/07/10 12:25:26;;;;;;;0.10;0.10;;;;;;;;;;5060289;28;20216;-70
2022/07/10 12:28:14;;;;;;;0.13;0.10;;;;;;;;;;5056178;28;20208;-70
2022/07/10 12:31:00;;;;;;;0.10;0.10;;;;;;;;;;5064175;28;20630;-70
2022/07/10 12:33:52;;;;;;;0.10;0.10;;;;;;;;;;5057468;28;20219;-70
2022/07/10 12:36:44;;;;;;;0.10;0.10;;;;;;;;;;5057481;28;20211;-70
2022/07/10 12:39:36;;;;;;;0.10;0.10;;;;;;;;;;5064610;28;20210;-70
2022/07/10 12:42:27;;;;;;;0.10;0.10;;;;;;;;;;5053366;28;20207;-69
2022/07/10 12:45:15;;;;;;;0.15;0.15;;;;;;;;;;5052629;28;20276;-70
2022/07/10 12:48:05;;;;;;;0.10;0.10;;;;;;;;;;5056432;28;20671;-70
2022/07/10 12:50:52;;;;;;;0.10;0.10;;;;;;;;;;5054583;28;20254;-70
2022/07/10 12:53:45;;;;;;;0.10;0.10;;;;;;;;;;5057834;28;20254;-70
2022/07/10 12:56:36;;;;;;;0.00;0.00;;;;;;;;;;5057684;28;20261;-70
2022/07/10 12:59:24;;;;;;;0.00;0.00;;;;;;;;;;5062915;28;20213;-70
2022/07/10 13:02:17;;;;;;;0.13;0.13;;;;;;;;;;5056094;28;20225;-70
2022/07/10 13:05:04;;;;;;;0.30;0.10;;;;;;;;;;5061015;28;20215;-71
2022/07/10 13:07:51;;;;;;;0.10;0.10;;;;;;;;;;5056034;28;20213;-70
2022/07/10 13:10:39;;;;;;;0.00;0.00;;;;;;;;;;5058881;28;20315;-70
2022/07/10 13:13:28;;;;;;;1.13;0.10;;;;;;;;;;5060160;28;20219;-70
2022/07/10 13:16:15;;;;;;;0.03;0.03;;;;;;;;;;5061771;28;20213;-70
2022/07/10 13:19:02;;;;;;;0.10;0.10;;;;;;;;;;5054693;28;20236;-71
2022/07/10 13:21:49;;;;;;;0.10;0.10;;;;;;;;;;5062136;28;20246;-70
2022/07/10 13:24:36;;;;;;;0.00;0.00;;;;;;;;;;5056433;28;20215;-71
2022/07/10 13:27:23;;;;;;;0.05;0.05;;;;;;;;;;5057280;28;20682;-70
2022/07/10 13:30:12;;;;;;;0.03;0.03;;;;;;;;;;5059677;28;20243;-70
2022/07/10 13:32:59;;;;;;;0.20;0.10;;;;;;;;;;5064326;28;20499;-70
2022/07/10 13:35:46;;;;;;;0.20;0.00;;;;;;;;;;5060002;28;20288;-70
2022/07/10 13:38:34;;;;;;;0.05;0.05;;;;;;;;;;5056896;28;20207;-70
2022/07/10 13:41:21;;;;;;;0.05;0.03;;;;;;;;;;5061402;28;20246;-71
2022/07/10 13:44:08;;;;;;;0.00;0.00;;;;;;;;;;5059810;28;20741;-71
2022/07/10 13:46:57;;;;;;;0.00;0.00;;;;;;;;;;5057361;28;20217;-71
2022/07/10 13:49:44;;;;;;;0.20;0.20;;;;;;;;;;5057732;28;20726;-70
2022/07/10 13:52:31;;;;;;;0.17;0.10;;;;;;;;;;5056540;28;20215;-70
2022/07/10 13:55:18;;;;;;;0.73;0.10;;;;;;;;;;5060352;28;20344;-71
2022/07/10 13:58:06;;;;;;;0.20;0.00;;;;;;;;;;5056263;28;20211;-71
2022/07/10 14:00:53;;;;;;;0.15;0.10;;;;;;;;;;5061114;28;20577;-71
2022/07/10 14:03:41;;;;;;;0.00;0.00;;;;;;;;;;5056776;28;20231;-70
2022/07/10 14:06:28;;;;;;;0.00;0.00;;;;;;;;;;5060828;28;20258;-70
2022/07/10 14:09:15;;;;;;;1.13;0.00;;;;;;;;;;5056929;28;21051;-69
2022/07/10 14:12:02;;;;;;;0.00;0.00;;;;;;;;;;5054983;28;20741;-70
2022/07/10 14:14:49;;;;;;;0.10;0.10;;;;;;;;;;5056253;28;20213;-70
2022/07/10 14:17:36;;;;;;;0.00;0.00;;;;;;;;;;5052665;28;20663;-69
2022/07/10 14:20:25;;;;;;;0.00;0.00;;;;;;;;;;5053674;28;20206;-71
2022/07/10 14:23:12;;;;;;;0.35;0.10;;;;;;;;;;5056183;28;20205;-70
2022/07/10 14:25:59;;;;;;;0.13;0.03;;;;;;;;;;5063578;28;20284;-71
2022/07/10 14:28:46;;;;;;;0.08;0.08;;;;;;;;;;5057510;28;20203;-70
2022/07/10 14:31:34;;;;;;;0.10;0.10;;;;;;;;;;5063609;28;20207;-71
2022/07/10 14:34:24;;;;;;;0.00;0.00;;;;;;;;;;5067285;28;20305;-71
2022/07/10 14:37:12;;;;;;;0.00;0.00;;;;;;;;;;5062146;28;20705;-70
2022/07/10 14:39:59;;;;;;;0.15;0.00;;;;;;;;;;5064391;28;20251;-70
2022/07/10 14:42:46;;;;;;;0.10;0.10;;;;;;;;;;5060326;28;20673;-70
2022/07/10 14:45:33;;;;;;;0.13;0.00;;;;;;;;;;5060985;28;20325;-70
2022/07/10 14:48:20;;;;;;;0.00;0.00;;;;;;;;;;5063364;28;20211;-69
2022/07/10 14:51:08;;;;;;;0.00;0.00;;;;;;;;;;5058929;28;20591;-71
2022/07/10 14:53:56;;;;;;;0.00;0.00;;;;;;;;;;5055271;28;20292;-70
2022/07/10 14:56:44;;;;;;;0.10;0.10;;;;;;;;;;5066579;28;20212;-70
2022/07/10 14:59:31;;;;;;;0.03;0.03;;;;;;;;;;5060737;28;20222;-71
2022/07/10 15:02:18;;;;;;;0.00;0.00;;;;;;;;;;5061120;28;20321;-70
2022/07/10 15:05:06;;;;;;;0.10;0.10;;;;;;;;;;5059007;28;20218;-69
2022/07/10 15:07:53;;;;;;;0.10;0.10;;;;;;;;;;5059065;28;20306;-70
2022/07/10 15:10:45;;;;;;;0.00;0.00;;;;;;;;;;5060792;28;20573;-70
2022/07/10 15:13:32;;;;;;;0.08;0.08;;;;;;;;;;5064337;28;20258;-70
2022/07/10 15:16:20;;;;;;;0.10;0.10;;;;;;;;;;5057325;28;20211;-71
2022/07/10 15:19:09;;;;;;;0.10;0.10;;;;;;;;;;5059381;28;20205;-72
2022/07/10 15:21:57;;;;;;;0.00;0.00;;;;;;;;;;5058086;28;20206;-71
2022/07/10 15:24:44;;;;;;;0.10;0.10;;;;;;;;;;5057161;28;20750;-70
2022/07/10 15:27:33;;;;;;;0.10;0.10;;;;;;;;;;5058698;28;20626;-70
2022/07/10 15:30:20;;;;;;;0.10;0.10;;;;;;;;;;5058205;28;20295;-70
2022/07/10 15:33:07;;;;;;;0.00;0.00;;;;;;;;;;5059752;28;20231;-71
2022/07/10 15:35:54;;;;;;;0.10;0.10;;;;;;;;;;5057050;28;20212;-70
2022/07/10 15:38:41;;;;;;;0.60;0.10;;;;;;;;;;5059555;28;20209;-73
2022/07/10 15:41:28;;;;;;;0.88;0.15;;;;;;;;;;5060245;28;20355;-73
2022/07/10 15:44:17;;;;;;;0.10;0.05;;;;;;;;;;5057461;28;20196;-72
2022/07/10 15:47:05;;;;;;;0.10;0.10;;;;;;;;;;5059703;28;20283;-73
2022/07/10 15:49:52;;;;;;;0.00;0.00;;;;;;;;;;5060063;28;20197;-73
2022/07/10 15:52:38;;;;;;;0.00;0.00;;;;;;;;;;5053904;28;20205;-73
2022/07/10 15:55:25;;;;;;;0.10;0.10;;;;;;;;;;5059850;28;20228;-73
2022/07/10 15:58:13;;;;;;;0.20;0.20;;;;;;;;;;5060007;28;20596;-72
2022/07/10 16:01:01;;;;;;;0.15;0.10;;;;;;;;;;5054332;28;20211;-73
2022/07/10 16:03:48;;;;;;;0.05;0.05;;;;;;;;;;5055909;28;20220;-73
2022/07/10 16:06:37;;;;;;;0.00;0.00;;;;;;;;;;5061138;28;20345;-73
2022/07/10 16:09:24;;;;;;;0.10;0.10;;;;;;;;;;5056531;28;20200;-72
2022/07/10 16:12:11;;;;;;;1.25;0.10;;;;;;;;;;5055203;28;20229;-72
2022/07/10 16:14:58;;;;;;;0.15;0.15;;;;;;;;;;5055753;28;20248;-73
2022/07/10 16:17:46;;;;;;;0.10;0.10;;;;;;;;;;5061668;28;20222;-73
2022/07/10 16:20:35;;;;;;;0.10;0.10;;;;;;;;;;5055434;28;20403;-73
2022/07/10 16:23:22;;;;;;;0.10;0.10;;;;;;;;;;5057742;28;20246;-73
2022/07/10 16:26:11;;;;;;;0.10;0.10;;;;;;;;;;5060217;28;20211;-73
2022/07/10 16:28:58;;;;;;;0.22;0.10;;;;;;;;;;5052824;28;20257;-73
2022/07/10 16:31:45;;;;;;;0.00;0.00;;;;;;;;;;5055253;28;20208;-73
2022/07/10 16:34:33;;;;;;;0.10;0.10;;;;;;;;;;5061637;28;20236;-73
2022/07/10 16:37:20;;;;;;;0.10;0.10;;;;;;;;;;5059950;28;20567;-73
2022/07/10 16:40:09;;;;;;;0.10;0.10;;;;;;;;;;5060834;28;20207;-72
2022/07/10 16:42:56;;;;;;;0.10;0.10;;;;;;;;;;5058347;28;20222;-73
2022/07/10 16:45:44;;;;;;;0.00;0.00;;;;;;;;;;5059236;28;20231;-73
2022/07/10 16:48:32;;;;;;;0.10;0.10;;;;;;;;;;5055682;28;20215;-71
2022/07/10 16:51:22;;;;;;;0.10;0.10;;;;;;;;;;5055823;28;20239;-70
2022/07/10 16:54:09;;;;;;;0.10;0.10;;;;;;;;;;5052879;28;21152;-71
2022/07/10 16:56:56;;;;;;;0.10;0.10;;;;;;;;;;5055662;28;20228;-70
2022/07/10 16:59:43;;;;;;;0.10;0.10;;;;;;;;;;5058942;28;20253;-71
2022/07/10 17:02:30;;;;;;;0.00;0.00;;;;;;;;;;5052795;28;20238;-70